sensor_id;sensor_type;location;lat;lon;timestamp;P1;durP1;ratioP1;P2;durP2;ratioP2
13311;SDS011;34033;48.672;9.376;2023-02-21T00:02:09;11.37;;;3.60;;
13311;SDS011;34033;48.672;9.376;2023-02-21T00:04:54;4.47;;;3.07;;
13311;SDS011;34033;48.672;9.376;2023-02-21T00:07:37;4.47;;;3.13;;
13311;SDS011;34033;48.672;9.376;2023-02-21T00:10:21;5.10;;;2.97;;
13311;SDS011;34033;48.672;9.376;2023-02-21T00:13:05;5.00;;;3.53;;
13311;SDS011;34033;48.672;9.376;2023-02-21T00:15:49;4.97;;;3.17;;
13311;SDS011;34033;48.672;9.376;2023-02-21T00:18:34;4.47;;;3.00;;
13311;SDS011;34033;48.672;9.376;2023-02-21T00:21:18;6.20;;;3.23;;
13311;SDS011;34033;48.672;9.376;2023-02-21T00:24:02;4.20;;;2.80;;
13311;SDS011;34033;48.672;9.376;2023-02-21T00:26:47;6.43;;;2.83;;
13311;SDS011;34033;48.672;9.376;2023-02-21T00:29:31;3.63;;;2.83;;
13311;SDS011;34033;48.672;9.376;2023-02-21T00:32:15;7.30;;;4.20;;
13311;SDS011;34033;48.672;9.376;2023-02-21T00:34:59;8.50;;;3.53;;
13311;SDS011;34033;48.672;9.376;2023-02-21T00:37:43;7.40;;;3.70;;
13311;SDS011;34033;48.672;9.376;2023-02-21T00:40:27;7.70;;;4.70;;
13311;SDS011;34033;48.672;9.376;2023-02-21T00:43:11;7.27;;;3.90;;
13311;SDS011;34033;48.672;9.376;2023-02-21T00:45:54;6.83;;;3.97;;
13311;SDS011;34033;48.672;9.376;2023-02-21T00:48:38;4.63;;;3.20;;
13311;SDS011;34033;48.672;9.376;2023-02-21T00:51:22;5.43;;;3.33;;
13311;SDS011;34033;48.672;9.376;2023-02-21T00:54:06;6.00;;;3.57;;
13311;SDS011;34033;48.672;9.376;2023-02-21T00:56:50;6.77;;;3.97;;
13311;SDS011;34033;48.672;9.376;2023-02-21T00:59:34;5.00;;;3.53;;
13311;SDS011;34033;48.672;9.376;2023-02-21T01:02:18;7.03;;;3.37;;
13311;SDS011;34033;48.672;9.376;2023-02-21T01:05:02;4.40;;;3.53;;
13311;SDS011;34033;48.672;9.376;2023-02-21T01:07:47;6.00;;;3.57;;
13311;SDS011;34033;48.672;9.376;2023-02-21T01:10:30;4.80;;;3.30;;
13311;SDS011;34033;48.672;9.376;2023-02-21T01:13:14;6.23;;;3.53;;
13311;SDS011;34033;48.672;9.376;2023-02-21T01:15:58;9.20;;;4.27;;
13311;SDS011;34033;48.672;9.376;2023-02-21T01:18:42;8.20;;;4.53;;
13311;SDS011;34033;48.672;9.376;2023-02-21T01:21:26;8.03;;;4.50;;
13311;SDS011;34033;48.672;9.376;2023-02-21T01:24:14;7.77;;;4.10;;
13311;SDS011;34033;48.672;9.376;2023-02-21T01:26:58;5.50;;;3.80;;
13311;SDS011;34033;48.672;9.376;2023-02-21T01:29:42;4.83;;;3.63;;
13311;SDS011;34033;48.672;9.376;2023-02-21T01:32:26;5.37;;;3.80;;
13311;SDS011;34033;48.672;9.376;2023-02-21T01:35:10;5.90;;;3.57;;
13311;SDS011;34033;48.672;9.376;2023-02-21T01:37:54;11.30;;;3.80;;
13311;SDS011;34033;48.672;9.376;2023-02-21T01:40:38;4.43;;;3.53;;
13311;SDS011;34033;48.672;9.376;2023-02-21T01:43:23;6.20;;;3.47;;
13311;SDS011;34033;48.672;9.376;2023-02-21T01:46:09;3.83;;;2.70;;
13311;SDS011;34033;48.672;9.376;2023-02-21T01:48:59;6.73;;;3.50;;
13311;SDS011;34033;48.672;9.376;2023-02-21T01:51:47;12.83;;;3.57;;
13311;SDS011;34033;48.672;9.376;2023-02-21T01:54:32;8.53;;;3.90;;
13311;SDS011;34033;48.672;9.376;2023-02-21T01:57:20;4.13;;;3.13;;
13311;SDS011;34033;48.672;9.376;2023-02-21T02:00:06;4.27;;;2.90;;
13311;SDS011;34033;48.672;9.376;2023-02-21T02:02:56;5.57;;;3.13;;
13311;SDS011;34033;48.672;9.376;2023-02-21T02:05:43;4.40;;;3.20;;
13311;SDS011;34033;48.672;9.376;2023-02-21T02:08:31;6.67;;;3.77;;
13311;SDS011;34033;48.672;9.376;2023-02-21T02:14:57;5.30;;;3.60;;
13311;SDS011;34033;48.672;9.376;2023-02-21T02:31:39;2.97;;;2.43;;
13311;SDS011;34033;48.672;9.376;2023-02-21T02:37:32;2.83;;;2.50;;
13311;SDS011;34033;48.672;9.376;2023-02-21T02:43:10;3.47;;;2.83;;
13311;SDS011;34033;48.672;9.376;2023-02-21T02:45:43;4.27;;;2.90;;
13311;SDS011;34033;48.672;9.376;2023-02-21T02:50:59;4.80;;;3.27;;
13311;SDS011;34033;48.672;9.376;2023-02-21T02:53:29;8.53;;;3.70;;
13311;SDS011;34033;48.672;9.376;2023-02-21T02:55:56;4.63;;;3.03;;
13311;SDS011;34033;48.672;9.376;2023-02-21T02:58:25;3.40;;;2.80;;
13311;SDS011;34033;48.672;9.376;2023-02-21T03:03:43;5.77;;;3.40;;
13311;SDS011;34033;48.672;9.376;2023-02-21T03:06:24;8.87;;;4.10;;
13311;SDS011;34033;48.672;9.376;2023-02-21T03:08:52;6.30;;;3.70;;
13311;SDS011;34033;48.672;9.376;2023-02-21T03:11:24;5.20;;;3.20;;
13311;SDS011;34033;48.672;9.376;2023-02-21T03:14:12;4.13;;;3.23;;
13311;SDS011;34033;48.672;9.376;2023-02-21T03:16:41;3.30;;;2.67;;
13311;SDS011;34033;48.672;9.376;2023-02-21T03:19:19;5.13;;;2.80;;
13311;SDS011;34033;48.672;9.376;2023-02-21T03:21:54;9.70;;;3.43;;
13311;SDS011;34033;48.672;9.376;2023-02-21T03:24:23;6.33;;;3.23;;
13311;SDS011;34033;48.672;9.376;2023-02-21T03:26:52;3.97;;;2.77;;
13311;SDS011;34033;48.672;9.376;2023-02-21T03:29:22;6.53;;;2.93;;
13311;SDS011;34033;48.672;9.376;2023-02-21T03:31:54;5.10;;;2.80;;
13311;SDS011;34033;48.672;9.376;2023-02-21T03:34:34;5.03;;;3.13;;
13311;SDS011;34033;48.672;9.376;2023-02-21T03:37:00;3.10;;;2.80;;
13311;SDS011;34033;48.672;9.376;2023-02-21T03:39:25;3.73;;;2.87;;
13311;SDS011;34033;48.672;9.376;2023-02-21T03:41:50;4.43;;;3.03;;
13311;SDS011;34033;48.672;9.376;2023-02-21T03:44:16;4.00;;;3.23;;
13311;SDS011;34033;48.672;9.376;2023-02-21T03:46:42;3.80;;;3.07;;
13311;SDS011;34033;48.672;9.376;2023-02-21T03:49:07;3.47;;;2.63;;
13311;SDS011;34033;48.672;9.376;2023-02-21T03:51:32;4.03;;;2.93;;
13311;SDS011;34033;48.672;9.376;2023-02-21T03:53:58;6.07;;;3.30;;
13311;SDS011;34033;48.672;9.376;2023-02-21T03:56:23;5.10;;;3.30;;
13311;SDS011;34033;48.672;9.376;2023-02-21T03:58:48;5.60;;;3.00;;
13311;SDS011;34033;48.672;9.376;2023-02-21T04:01:14;3.80;;;3.20;;
13311;SDS011;34033;48.672;9.376;2023-02-21T04:03:39;3.43;;;3.00;;
13311;SDS011;34033;48.672;9.376;2023-02-21T04:06:04;3.77;;;2.70;;
13311;SDS011;34033;48.672;9.376;2023-02-21T04:08:30;3.10;;;2.80;;
13311;SDS011;34033;48.672;9.376;2023-02-21T04:10:55;4.80;;;2.80;;
13311;SDS011;34033;48.672;9.376;2023-02-21T04:13:20;3.47;;;3.00;;
13311;SDS011;34033;48.672;9.376;2023-02-21T04:15:47;3.63;;;2.80;;
13311;SDS011;34033;48.672;9.376;2023-02-21T04:18:13;3.93;;;2.70;;
13311;SDS011;34033;48.672;9.376;2023-02-21T04:20:38;9.53;;;2.80;;
13311;SDS011;34033;48.672;9.376;2023-02-21T04:23:03;3.17;;;2.80;;
13311;SDS011;34033;48.672;9.376;2023-02-21T04:25:29;3.73;;;2.83;;
13311;SDS011;34033;48.672;9.376;2023-02-21T04:27:54;3.77;;;3.10;;
13311;SDS011;34033;48.672;9.376;2023-02-21T04:30:19;6.23;;;3.43;;
13311;SDS011;34033;48.672;9.376;2023-02-21T04:32:45;4.90;;;3.07;;
13311;SDS011;34033;48.672;9.376;2023-02-21T04:35:10;4.43;;;2.73;;
13311;SDS011;34033;48.672;9.376;2023-02-21T04:37:36;5.17;;;2.80;;
13311;SDS011;34033;48.672;9.376;2023-02-21T04:40:01;4.83;;;3.00;;
13311;SDS011;34033;48.672;9.376;2023-02-21T04:42:26;3.23;;;2.70;;
13311;SDS011;34033;48.672;9.376;2023-02-21T04:44:52;3.27;;;2.70;;
13311;SDS011;34033;48.672;9.376;2023-02-21T04:47:17;3.13;;;2.60;;
13311;SDS011;34033;48.672;9.376;2023-02-21T04:49:42;2.50;;;2.30;;
13311;SDS011;34033;48.672;9.376;2023-02-21T04:52:08;2.90;;;2.60;;
13311;SDS011;34033;48.672;9.376;2023-02-21T04:54:33;3.43;;;2.47;;
13311;SDS011;34033;48.672;9.376;2023-02-21T04:56:58;3.77;;;2.47;;
13311;SDS011;34033;48.672;9.376;2023-02-21T04:59:24;3.60;;;2.50;;
13311;SDS011;34033;48.672;9.376;2023-02-21T05:01:49;3.40;;;2.30;;
13311;SDS011;34033;48.672;9.376;2023-02-21T05:04:15;3.70;;;2.57;;
13311;SDS011;34033;48.672;9.376;2023-02-21T05:06:40;3.87;;;2.63;;
13311;SDS011;34033;48.672;9.376;2023-02-21T05:09:05;4.13;;;2.60;;
13311;SDS011;34033;48.672;9.376;2023-02-21T05:11:32;5.33;;;2.67;;
13311;SDS011;34033;48.672;9.376;2023-02-21T05:14:01;2.70;;;2.50;;
13311;SDS011;34033;48.672;9.376;2023-02-21T05:16:27;3.23;;;2.63;;
13311;SDS011;34033;48.672;9.376;2023-02-21T05:18:53;4.10;;;2.63;;
13311;SDS011;34033;48.672;9.376;2023-02-21T05:21:18;3.47;;;2.90;;
13311;SDS011;34033;48.672;9.376;2023-02-21T05:23:44;3.87;;;2.50;;
13311;SDS011;34033;48.672;9.376;2023-02-21T05:26:24;3.80;;;3.03;;
13311;SDS011;34033;48.672;9.376;2023-02-21T05:28:57;3.97;;;3.00;;
13311;SDS011;34033;48.672;9.376;2023-02-21T05:31:22;3.73;;;2.80;;
13311;SDS011;34033;48.672;9.376;2023-02-21T05:33:48;4.67;;;2.93;;
13311;SDS011;34033;48.672;9.376;2023-02-21T05:36:13;5.30;;;2.87;;
13311;SDS011;34033;48.672;9.376;2023-02-21T05:38:46;2.83;;;2.47;;
13311;SDS011;34033;48.672;9.376;2023-02-21T05:41:14;3.93;;;2.67;;
13311;SDS011;34033;48.672;9.376;2023-02-21T05:43:42;4.20;;;2.30;;
13311;SDS011;34033;48.672;9.376;2023-02-21T05:46:15;2.97;;;2.50;;
13311;SDS011;34033;48.672;9.376;2023-02-21T05:48:55;3.00;;;2.27;;
13311;SDS011;34033;48.672;9.376;2023-02-21T05:51:21;3.57;;;2.40;;
13311;SDS011;34033;48.672;9.376;2023-02-21T05:53:47;3.20;;;2.40;;
13311;SDS011;34033;48.672;9.376;2023-02-21T05:56:13;3.00;;;2.50;;
13311;SDS011;34033;48.672;9.376;2023-02-21T05:58:38;4.47;;;2.43;;
13311;SDS011;34033;48.672;9.376;2023-02-21T06:01:04;7.83;;;2.63;;
13311;SDS011;34033;48.672;9.376;2023-02-21T06:03:30;3.97;;;2.03;;
13311;SDS011;34033;48.672;9.376;2023-02-21T06:05:57;3.90;;;2.20;;
13311;SDS011;34033;48.672;9.376;2023-02-21T06:08:22;3.20;;;2.40;;
13311;SDS011;34033;48.672;9.376;2023-02-21T06:10:48;4.77;;;2.67;;
13311;SDS011;34033;48.672;9.376;2023-02-21T06:13:13;5.07;;;3.20;;
13311;SDS011;34033;48.672;9.376;2023-02-21T06:15:38;5.07;;;2.87;;
13311;SDS011;34033;48.672;9.376;2023-02-21T06:18:04;4.50;;;3.60;;
13311;SDS011;34033;48.672;9.376;2023-02-21T06:20:29;7.43;;;4.07;;
13311;SDS011;34033;48.672;9.376;2023-02-21T06:22:54;7.60;;;3.50;;
13311;SDS011;34033;48.672;9.376;2023-02-21T06:25:20;4.73;;;3.30;;
13311;SDS011;34033;48.672;9.376;2023-02-21T06:27:45;3.47;;;2.93;;
13311;SDS011;34033;48.672;9.376;2023-02-21T06:30:11;2.63;;;2.30;;
13311;SDS011;34033;48.672;9.376;2023-02-21T06:32:36;3.00;;;2.40;;
13311;SDS011;34033;48.672;9.376;2023-02-21T06:35:02;2.87;;;2.60;;
13311;SDS011;34033;48.672;9.376;2023-02-21T06:37:28;3.50;;;2.70;;
13311;SDS011;34033;48.672;9.376;2023-02-21T06:39:53;5.20;;;3.30;;
13311;SDS011;34033;48.672;9.376;2023-02-21T06:42:19;4.83;;;3.43;;
13311;SDS011;34033;48.672;9.376;2023-02-21T06:44:48;3.50;;;2.93;;
13311;SDS011;34033;48.672;9.376;2023-02-21T06:47:13;6.50;;;2.90;;
13311;SDS011;34033;48.672;9.376;2023-02-21T06:49:40;3.53;;;3.00;;
13311;SDS011;34033;48.672;9.376;2023-02-21T06:52:06;4.37;;;3.60;;
13311;SDS011;34033;48.672;9.376;2023-02-21T06:54:32;3.87;;;3.43;;
13311;SDS011;34033;48.672;9.376;2023-02-21T06:56:57;5.30;;;3.43;;
13311;SDS011;34033;48.672;9.376;2023-02-21T06:59:24;4.83;;;3.43;;
13311;SDS011;34033;48.672;9.376;2023-02-21T07:01:50;5.00;;;3.57;;
13311;SDS011;34033;48.672;9.376;2023-02-21T07:04:15;3.63;;;3.10;;
13311;SDS011;34033;48.672;9.376;2023-02-21T07:06:40;4.47;;;3.20;;
13311;SDS011;34033;48.672;9.376;2023-02-21T07:09:06;5.73;;;3.43;;
13311;SDS011;34033;48.672;9.376;2023-02-21T07:11:32;5.40;;;3.67;;
13311;SDS011;34033;48.672;9.376;2023-02-21T07:13:59;4.77;;;3.07;;
13311;SDS011;34033;48.672;9.376;2023-02-21T07:16:24;4.47;;;3.57;;
13311;SDS011;34033;48.672;9.376;2023-02-21T07:18:50;7.07;;;4.60;;
13311;SDS011;34033;48.672;9.376;2023-02-21T07:21:16;7.57;;;5.70;;
13311;SDS011;34033;48.672;9.376;2023-02-21T07:23:42;5.33;;;3.80;;
13311;SDS011;34033;48.672;9.376;2023-02-21T07:26:09;3.07;;;2.47;;
13311;SDS011;34033;48.672;9.376;2023-02-21T07:28:34;4.73;;;3.10;;
13311;SDS011;34033;48.672;9.376;2023-02-21T07:31:00;3.97;;;2.63;;
13311;SDS011;34033;48.672;9.376;2023-02-21T07:33:25;2.90;;;2.60;;
13311;SDS011;34033;48.672;9.376;2023-02-21T07:35:51;2.63;;;2.40;;
13311;SDS011;34033;48.672;9.376;2023-02-21T07:38:20;3.47;;;2.50;;
13311;SDS011;34033;48.672;9.376;2023-02-21T07:40:49;4.33;;;2.40;;
13311;SDS011;34033;48.672;9.376;2023-02-21T07:43:15;3.43;;;2.20;;
13311;SDS011;34033;48.672;9.376;2023-02-21T07:45:41;4.43;;;2.73;;
13311;SDS011;34033;48.672;9.376;2023-02-21T07:48:06;3.77;;;2.53;;
13311;SDS011;34033;48.672;9.376;2023-02-21T07:50:32;2.50;;;2.27;;
13311;SDS011;34033;48.672;9.376;2023-02-21T07:52:57;3.77;;;2.40;;
13311;SDS011;34033;48.672;9.376;2023-02-21T07:55:23;4.20;;;2.83;;
13311;SDS011;34033;48.672;9.376;2023-02-21T07:57:49;4.33;;;3.13;;
13311;SDS011;34033;48.672;9.376;2023-02-21T08:00:15;3.10;;;2.80;;
13311;SDS011;34033;48.672;9.376;2023-02-21T08:02:40;3.53;;;3.20;;
13311;SDS011;34033;48.672;9.376;2023-02-21T08:05:06;4.93;;;2.80;;
13311;SDS011;34033;48.672;9.376;2023-02-21T08:07:32;2.70;;;2.50;;
13311;SDS011;34033;48.672;9.376;2023-02-21T08:09:58;7.43;;;2.53;;
13311;SDS011;34033;48.672;9.376;2023-02-21T08:12:23;3.17;;;2.87;;
13311;SDS011;34033;48.672;9.376;2023-02-21T08:14:48;2.60;;;2.40;;
13311;SDS011;34033;48.672;9.376;2023-02-21T08:17:14;2.37;;;2.17;;
13311;SDS011;34033;48.672;9.376;2023-02-21T08:19:39;2.60;;;2.40;;
13311;SDS011;34033;48.672;9.376;2023-02-21T08:22:05;2.63;;;2.43;;
13311;SDS011;34033;48.672;9.376;2023-02-21T08:24:30;2.40;;;2.20;;
13311;SDS011;34033;48.672;9.376;2023-02-21T08:26:55;3.17;;;2.50;;
13311;SDS011;34033;48.672;9.376;2023-02-21T08:29:21;4.93;;;2.40;;
13311;SDS011;34033;48.672;9.376;2023-02-21T08:31:46;3.30;;;2.57;;
13311;SDS011;34033;48.672;9.376;2023-02-21T08:34:12;3.73;;;2.67;;
13311;SDS011;34033;48.672;9.376;2023-02-21T08:36:40;3.20;;;2.57;;
13311;SDS011;34033;48.672;9.376;2023-02-21T08:39:07;6.90;;;2.83;;
13311;SDS011;34033;48.672;9.376;2023-02-21T08:41:34;3.17;;;2.73;;
13311;SDS011;34033;48.672;9.376;2023-02-21T08:44:03;3.30;;;2.50;;
13311;SDS011;34033;48.672;9.376;2023-02-21T08:46:29;4.30;;;2.90;;
13311;SDS011;34033;48.672;9.376;2023-02-21T08:48:55;4.17;;;2.90;;
13311;SDS011;34033;48.672;9.376;2023-02-21T08:51:31;3.13;;;2.43;;
13311;SDS011;34033;48.672;9.376;2023-02-21T08:53:57;8.00;;;2.93;;
13311;SDS011;34033;48.672;9.376;2023-02-21T08:56:23;6.17;;;2.73;;
13311;SDS011;34033;48.672;9.376;2023-02-21T08:58:49;5.30;;;2.93;;
13311;SDS011;34033;48.672;9.376;2023-02-21T09:01:15;3.10;;;2.57;;
13311;SDS011;34033;48.672;9.376;2023-02-21T09:03:41;3.97;;;2.70;;
13311;SDS011;34033;48.672;9.376;2023-02-21T09:06:06;6.30;;;2.50;;
13311;SDS011;34033;48.672;9.376;2023-02-21T09:08:33;2.87;;;2.50;;
13311;SDS011;34033;48.672;9.376;2023-02-21T09:11:00;4.57;;;2.90;;
13311;SDS011;34033;48.672;9.376;2023-02-21T09:13:25;3.00;;;2.50;;
13311;SDS011;34033;48.672;9.376;2023-02-21T09:15:51;3.63;;;2.50;;
13311;SDS011;34033;48.672;9.376;2023-02-21T09:18:17;2.90;;;2.50;;
13311;SDS011;34033;48.672;9.376;2023-02-21T09:20:42;3.10;;;2.40;;
13311;SDS011;34033;48.672;9.376;2023-02-21T09:23:08;2.87;;;2.50;;
13311;SDS011;34033;48.672;9.376;2023-02-21T09:25:34;2.50;;;2.30;;
13311;SDS011;34033;48.672;9.376;2023-02-21T09:27:59;3.83;;;2.40;;
13311;SDS011;34033;48.672;9.376;2023-02-21T09:30:26;2.63;;;2.40;;
13311;SDS011;34033;48.672;9.376;2023-02-21T09:32:53;3.10;;;2.20;;
13311;SDS011;34033;48.672;9.376;2023-02-21T09:35:20;3.30;;;2.50;;
13311;SDS011;34033;48.672;9.376;2023-02-21T09:37:46;3.00;;;2.53;;
13311;SDS011;34033;48.672;9.376;2023-02-21T09:43:15;2.47;;;2.27;;
13311;SDS011;34033;48.672;9.376;2023-02-21T09:45:59;3.40;;;2.40;;
13311;SDS011;34033;48.672;9.376;2023-02-21T09:48:34;2.63;;;2.40;;
13311;SDS011;34033;48.672;9.376;2023-02-21T09:51:01;3.03;;;2.70;;
13311;SDS011;34033;48.672;9.376;2023-02-21T09:53:41;4.10;;;2.50;;
13311;SDS011;34033;48.672;9.376;2023-02-21T09:56:20;3.40;;;2.60;;
13311;SDS011;34033;48.672;9.376;2023-02-21T09:58:54;4.50;;;2.80;;
13311;SDS011;34033;48.672;9.376;2023-02-21T10:01:24;2.97;;;2.50;;
13311;SDS011;34033;48.672;9.376;2023-02-21T10:15:17;3.87;;;2.53;;
13311;SDS011;34033;48.672;9.376;2023-02-21T10:17:52;2.87;;;2.50;;
13311;SDS011;34033;48.672;9.376;2023-02-21T10:20:36;2.77;;;2.20;;
13311;SDS011;34033;48.672;9.376;2023-02-21T10:23:16;4.30;;;2.50;;
13311;SDS011;34033;48.672;9.376;2023-02-21T10:25:52;3.17;;;2.63;;
13311;SDS011;34033;48.672;9.376;2023-02-21T10:28:23;2.93;;;2.57;;
13311;SDS011;34033;48.672;9.376;2023-02-21T10:30:50;2.73;;;2.53;;
13311;SDS011;34033;48.672;9.376;2023-02-21T10:33:19;2.77;;;2.47;;
13311;SDS011;34033;48.672;9.376;2023-02-21T10:35:45;2.87;;;2.60;;
13311;SDS011;34033;48.672;9.376;2023-02-21T10:38:18;5.63;;;2.30;;
13311;SDS011;34033;48.672;9.376;2023-02-21T10:40:58;3.50;;;2.57;;
13311;SDS011;34033;48.672;9.376;2023-02-21T10:43:31;5.07;;;2.57;;
13311;SDS011;34033;48.672;9.376;2023-02-21T10:46:04;3.57;;;2.33;;
13311;SDS011;34033;48.672;9.376;2023-02-21T10:48:42;3.70;;;2.67;;
13311;SDS011;34033;48.672;9.376;2023-02-21T10:51:11;2.30;;;2.10;;
13311;SDS011;34033;48.672;9.376;2023-02-21T10:53:45;2.37;;;2.17;;
13311;SDS011;34033;48.672;9.376;2023-02-21T11:06:51;2.43;;;2.20;;
13311;SDS011;34033;48.672;9.376;2023-02-21T11:12:36;4.77;;;2.10;;
13311;SDS011;34033;48.672;9.376;2023-02-21T11:14:39;5.57;;;2.03;;
13311;SDS011;34033;48.672;9.376;2023-02-21T11:17:13;2.20;;;2.00;;
13311;SDS011;34033;48.672;9.376;2023-02-21T11:19:45;3.83;;;2.07;;
13311;SDS011;34033;48.672;9.376;2023-02-21T11:22:14;3.93;;;2.10;;
13311;SDS011;34033;48.672;9.376;2023-02-21T11:24:45;2.23;;;2.03;;
13311;SDS011;34033;48.672;9.376;2023-02-21T11:27:16;3.70;;;2.20;;
13311;SDS011;34033;48.672;9.376;2023-02-21T11:29:42;1.90;;;1.80;;
13311;SDS011;34033;48.672;9.376;2023-02-21T11:32:12;3.20;;;2.23;;
13311;SDS011;34033;48.672;9.376;2023-02-21T11:34:46;2.13;;;1.93;;
13311;SDS011;34033;48.672;9.376;2023-02-21T11:37:12;2.53;;;2.20;;
13311;SDS011;34033;48.672;9.376;2023-02-21T11:39:39;2.20;;;2.00;;
13311;SDS011;34033;48.672;9.376;2023-02-21T11:47:45;1.83;;;1.60;;
13311;SDS011;34033;48.672;9.376;2023-02-21T11:53:03;2.03;;;1.87;;
13311;SDS011;34033;48.672;9.376;2023-02-21T11:55:36;1.70;;;1.60;;
13311;SDS011;34033;48.672;9.376;2023-02-21T12:08:53;1.30;;;0.80;;
13311;SDS011;34033;48.672;9.376;2023-02-21T12:11:43;0.83;;;0.83;;
13311;SDS011;34033;48.672;9.376;2023-02-21T12:27:43;4.00;;;0.90;;
13311;SDS011;34033;48.672;9.376;2023-02-21T12:30:17;0.70;;;0.70;;
13311;SDS011;34033;48.672;9.376;2023-02-21T12:32:48;0.73;;;0.53;;
13311;SDS011;34033;48.672;9.376;2023-02-21T12:38:06;0.70;;;0.70;;
13311;SDS011;34033;48.672;9.376;2023-02-21T12:40:58;0.80;;;0.60;;
13311;SDS011;34033;48.672;9.376;2023-02-21T12:43:41;0.73;;;0.70;;
13311;SDS011;34033;48.672;9.376;2023-02-21T12:48:53;0.70;;;0.70;;
13311;SDS011;34033;48.672;9.376;2023-02-21T12:51:32;1.43;;;0.93;;
13311;SDS011;34033;48.672;9.376;2023-02-21T12:57:27;0.77;;;0.77;;
13311;SDS011;34033;48.672;9.376;2023-02-21T13:00:30;2.07;;;0.77;;
13311;SDS011;34033;48.672;9.376;2023-02-21T13:05:49;1.13;;;1.10;;
13311;SDS011;34033;48.672;9.376;2023-02-21T13:08:20;0.90;;;0.90;;
13311;SDS011;34033;48.672;9.376;2023-02-21T13:13:43;0.67;;;0.67;;
13311;SDS011;34033;48.672;9.376;2023-02-21T13:16:09;1.00;;;0.90;;
13311;SDS011;34033;48.672;9.376;2023-02-21T13:18:45;1.03;;;1.00;;
13311;SDS011;34033;48.672;9.376;2023-02-21T13:23:58;0.77;;;0.77;;
13311;SDS011;34033;48.672;9.376;2023-02-21T13:29:31;0.80;;;0.80;;
13311;SDS011;34033;48.672;9.376;2023-02-21T13:32:09;1.00;;;1.00;;
13311;SDS011;34033;48.672;9.376;2023-02-21T13:34:37;0.93;;;0.93;;
13311;SDS011;34033;48.672;9.376;2023-02-21T13:37:06;0.80;;;0.80;;
13311;SDS011;34033;48.672;9.376;2023-02-21T13:39:37;0.80;;;0.80;;
13311;SDS011;34033;48.672;9.376;2023-02-21T13:42:18;0.90;;;0.90;;
13311;SDS011;34033;48.672;9.376;2023-02-21T13:44:50;0.77;;;0.77;;
13311;SDS011;34033;48.672;9.376;2023-02-21T13:47:20;0.87;;;0.87;;
13311;SDS011;34033;48.672;9.376;2023-02-21T13:49:48;0.70;;;0.70;;
13311;SDS011;34033;48.672;9.376;2023-02-21T13:57:42;0.70;;;0.70;;
13311;SDS011;34033;48.672;9.376;2023-02-21T14:08:11;0.50;;;0.50;;
13311;SDS011;34033;48.672;9.376;2023-02-21T14:10:40;0.60;;;0.60;;
13311;SDS011;34033;48.672;9.376;2023-02-21T14:19:19;1.03;;;0.83;;
13311;SDS011;34033;48.672;9.376;2023-02-21T14:24:41;0.70;;;0.70;;
13311;SDS011;34033;48.672;9.376;2023-02-21T14:29:38;0.43;;;0.43;;
13311;SDS011;34033;48.672;9.376;2023-02-21T14:37:15;0.50;;;0.50;;
13311;SDS011;34033;48.672;9.376;2023-02-21T14:51:15;1.03;;;0.90;;
13311;SDS011;34033;48.672;9.376;2023-02-21T15:02:29;0.50;;;0.50;;
13311;SDS011;34033;48.672;9.376;2023-02-21T15:12:41;0.80;;;0.80;;
13311;SDS011;34033;48.672;9.376;2023-02-21T15:15:17;1.10;;;0.73;;
13311;SDS011;34033;48.672;9.376;2023-02-21T15:20:37;0.70;;;0.70;;
13311;SDS011;34033;48.672;9.376;2023-02-21T15:23:14;1.17;;;1.17;;
13311;SDS011;34033;48.672;9.376;2023-02-21T15:25:43;1.00;;;1.00;;
13311;SDS011;34033;48.672;9.376;2023-02-21T15:28:34;1.00;;;1.00;;
13311;SDS011;34033;48.672;9.376;2023-02-21T15:31:04;0.90;;;0.90;;
13311;SDS011;34033;48.672;9.376;2023-02-21T15:33:33;1.93;;;1.13;;
13311;SDS011;34033;48.672;9.376;2023-02-21T15:36:01;1.57;;;1.10;;
13311;SDS011;34033;48.672;9.376;2023-02-21T15:38:42;1.23;;;1.10;;
13311;SDS011;34033;48.672;9.376;2023-02-21T15:41:30;0.90;;;0.90;;
13311;SDS011;34033;48.672;9.376;2023-02-21T15:46:31;3.00;;;1.40;;
13311;SDS011;34033;48.672;9.376;2023-02-21T15:49:05;1.23;;;1.10;;
13311;SDS011;34033;48.672;9.376;2023-02-21T15:51:31;2.53;;;1.20;;
13311;SDS011;34033;48.672;9.376;2023-02-21T15:59:35;1.77;;;1.67;;
13311;SDS011;34033;48.672;9.376;2023-02-21T16:04:37;4.00;;;2.40;;
13311;SDS011;34033;48.672;9.376;2023-02-21T16:07:04;4.67;;;3.47;;
13311;SDS011;34033;48.672;9.376;2023-02-21T16:09:38;7.60;;;3.53;;
13311;SDS011;34033;48.672;9.376;2023-02-21T16:14:42;5.17;;;3.77;;
13311;SDS011;34033;48.672;9.376;2023-02-21T16:19:39;4.30;;;2.57;;
13311;SDS011;34033;48.672;9.376;2023-02-21T16:28:18;4.53;;;3.40;;
13311;SDS011;34033;48.672;9.376;2023-02-21T16:30:27;2.90;;;2.20;;
13311;SDS011;34033;48.672;9.376;2023-02-21T16:32:58;2.27;;;1.97;;
13311;SDS011;34033;48.672;9.376;2023-02-21T16:35:25;2.27;;;2.07;;
13311;SDS011;34033;48.672;9.376;2023-02-21T16:37:55;3.87;;;3.33;;
13311;SDS011;34033;48.672;9.376;2023-02-21T16:40:24;4.83;;;2.70;;
13311;SDS011;34033;48.672;9.376;2023-02-21T16:42:54;4.67;;;2.27;;
13311;SDS011;34033;48.672;9.376;2023-02-21T16:45:21;2.80;;;2.40;;
13311;SDS011;34033;48.672;9.376;2023-02-21T16:47:48;3.83;;;2.40;;
13311;SDS011;34033;48.672;9.376;2023-02-21T16:50:25;3.00;;;2.03;;
13311;SDS011;34033;48.672;9.376;2023-02-21T16:52:51;2.10;;;1.90;;
13311;SDS011;34033;48.672;9.376;2023-02-21T16:55:17;2.40;;;2.00;;
13311;SDS011;34033;48.672;9.376;2023-02-21T16:57:50;2.73;;;2.00;;
13311;SDS011;34033;48.672;9.376;2023-02-21T17:00:18;3.57;;;2.60;;
13311;SDS011;34033;48.672;9.376;2023-02-21T17:02:46;2.60;;;2.40;;
13311;SDS011;34033;48.672;9.376;2023-02-21T17:05:16;4.37;;;2.43;;
13311;SDS011;34033;48.672;9.376;2023-02-21T17:07:43;4.27;;;2.57;;
13311;SDS011;34033;48.672;9.376;2023-02-21T17:10:09;2.93;;;2.60;;
13311;SDS011;34033;48.672;9.376;2023-02-21T17:12:35;7.97;;;3.90;;
13311;SDS011;34033;48.672;9.376;2023-02-21T17:15:00;9.00;;;2.90;;
13311;SDS011;34033;48.672;9.376;2023-02-21T17:17:26;3.90;;;3.03;;
13311;SDS011;34033;48.672;9.376;2023-02-21T17:19:51;4.23;;;3.13;;
13311;SDS011;34033;48.672;9.376;2023-02-21T17:22:16;4.10;;;3.00;;
13311;SDS011;34033;48.672;9.376;2023-02-21T17:24:42;4.27;;;3.33;;
13311;SDS011;34033;48.672;9.376;2023-02-21T17:27:07;4.57;;;3.53;;
13311;SDS011;34033;48.672;9.376;2023-02-21T17:29:33;4.33;;;3.10;;
13311;SDS011;34033;48.672;9.376;2023-02-21T17:31:58;5.50;;;4.00;;
13311;SDS011;34033;48.672;9.376;2023-02-21T17:34:26;9.97;;;4.23;;
13311;SDS011;34033;48.672;9.376;2023-02-21T17:36:52;6.83;;;4.50;;
13311;SDS011;34033;48.672;9.376;2023-02-21T17:39:18;5.80;;;4.37;;
13311;SDS011;34033;48.672;9.376;2023-02-21T17:41:48;26.63;;;17.03;;
13311;SDS011;34033;48.672;9.376;2023-02-21T17:44:15;8.90;;;6.00;;
13311;SDS011;34033;48.672;9.376;2023-02-21T17:46:48;8.23;;;5.23;;
13311;SDS011;34033;48.672;9.376;2023-02-21T17:49:20;8.47;;;5.40;;
13311;SDS011;34033;48.672;9.376;2023-02-21T17:51:47;7.10;;;5.37;;
13311;SDS011;34033;48.672;9.376;2023-02-21T17:54:13;8.80;;;5.47;;
13311;SDS011;34033;48.672;9.376;2023-02-21T17:56:40;6.70;;;4.87;;
13311;SDS011;34033;48.672;9.376;2023-02-21T17:59:05;6.87;;;5.10;;
13311;SDS011;34033;48.672;9.376;2023-02-21T18:01:30;7.40;;;5.60;;
13311;SDS011;34033;48.672;9.376;2023-02-21T18:03:56;8.90;;;4.70;;
13311;SDS011;34033;48.672;9.376;2023-02-21T18:06:21;7.73;;;4.77;;
13311;SDS011;34033;48.672;9.376;2023-02-21T18:08:47;10.97;;;4.50;;
13311;SDS011;34033;48.672;9.376;2023-02-21T18:11:13;8.80;;;4.40;;
13311;SDS011;34033;48.672;9.376;2023-02-21T18:13:40;9.70;;;4.50;;
13311;SDS011;34033;48.672;9.376;2023-02-21T18:16:06;12.70;;;5.57;;
13311;SDS011;34033;48.672;9.376;2023-02-21T18:18:32;12.07;;;5.27;;
13311;SDS011;34033;48.672;9.376;2023-02-21T18:20:57;9.53;;;5.40;;
13311;SDS011;34033;48.672;9.376;2023-02-21T18:23:24;7.40;;;5.20;;